N1907L KJQF-KFRR
Flight info
| Callsign | N1907L |
|---|---|
| Flight time | N/A |
| Altitude | 11000 |
| Route | VFR DIRECT |
| Aircraft | C172/L-SFG/C |
Departure
| Time | 2026-04-22 15:43 |
|---|---|
| Airport | Concord-Padgett Regional Airport (KJQF) |
Arrival
| Time | N/A |
|---|---|
| Airport | Front Royal Warren County Airport (KFRR) |
| Time | Latitude | Longitude | Altitude | Speed | Heading |
|---|---|---|---|---|---|
| 2026-04-22 15:33 | 35.38659 | -80.71154 | 676 ft | 0 kts | 275° |
| 2026-04-22 15:38 | 35.38673 | -80.71167 | 676 ft | 7 kts | 324° |
| 2026-04-22 15:38 | 35.38725 | -80.71164 | 677 ft | 9 kts | 50° |
| 2026-04-22 15:39 | 35.38722 | -80.71080 | 678 ft | 11 kts | 75° |
| 2026-04-22 15:39 | 35.38787 | -80.71049 | 680 ft | 11 kts | 10° |
| 2026-04-22 15:39 | 35.38868 | -80.71030 | 682 ft | 13 kts | 10° |
| 2026-04-22 15:39 | 35.38965 | -80.71008 | 686 ft | 15 kts | 11° |
| 2026-04-22 15:40 | 35.39072 | -80.70984 | 689 ft | 17 kts | 10° |
| 2026-04-22 15:40 | 35.39191 | -80.70961 | 693 ft | 17 kts | 15° |
| 2026-04-22 15:40 | 35.39310 | -80.70930 | 697 ft | 19 kts | 9° |
| 2026-04-22 15:40 | 35.39440 | -80.70901 | 701 ft | 18 kts | 11° |
| 2026-04-22 15:41 | 35.39564 | -80.70873 | 705 ft | 18 kts | 11° |
| 2026-04-22 15:41 | 35.39690 | -80.70844 | 709 ft | 18 kts | 11° |
| 2026-04-22 15:41 | 35.39782 | -80.70791 | 711 ft | 13 kts | 85° |
| 2026-04-22 15:41 | 35.39744 | -80.70700 | 710 ft | 14 kts | 179° |
| 2026-04-22 15:42 | 35.39521 | -80.70749 | 702 ft | 55 kts | 191° |
| 2026-04-22 15:42 | 35.39068 | -80.70819 | 802 ft | 68 kts | 186° |
| 2026-04-22 15:42 | 35.38672 | -80.71064 | 974 ft | 69 kts | 245° |
| 2026-04-22 15:42 | 35.38871 | -80.71581 | 1167 ft | 89 kts | 343° |
| 2026-04-22 15:43 | 35.39533 | -80.71463 | 1342 ft | 95 kts | 8° |
| 2026-04-22 15:43 | 35.40140 | -80.71293 | 1630 ft | 88 kts | 9° |
| 2026-04-22 15:43 | 35.40732 | -80.70868 | 1667 ft | 106 kts | 38° |
| 2026-04-22 15:43 | 35.41361 | -80.70393 | 1869 ft | 110 kts | 28° |
| 2026-04-22 15:44 | 35.42037 | -80.69900 | 2055 ft | 110 kts | 30° |
| 2026-04-22 15:44 | 35.42681 | -80.69460 | 2236 ft | 103 kts | 23° |
| 2026-04-22 15:44 | 35.43306 | -80.69042 | 2438 ft | 102 kts | 23° |
| 2026-04-22 15:44 | 35.43937 | -80.68628 | 2650 ft | 107 kts | 22° |
| 2026-04-22 15:45 | 35.44601 | -80.68185 | 2850 ft | 113 kts | 20° |
| 2026-04-22 15:45 | 35.45293 | -80.67711 | 3058 ft | 112 kts | 21° |
| 2026-04-22 15:45 | 35.45953 | -80.67274 | 3248 ft | 105 kts | 23° |
| 2026-04-22 15:45 | 35.46575 | -80.66860 | 3439 ft | 99 kts | 20° |
| 2026-04-22 15:46 | 35.47185 | -80.66454 | 3655 ft | 99 kts | 21° |
| 2026-04-22 15:46 | 35.47775 | -80.66068 | 3817 ft | 91 kts | 21° |
| 2026-04-22 15:46 | 35.48306 | -80.65713 | 3994 ft | 83 kts | 17° |
| 2026-04-22 15:46 | 35.48779 | -80.65399 | 4170 ft | 73 kts | 15° |
| 2026-04-22 15:47 | 35.49227 | -80.65110 | 4309 ft | 73 kts | 13° |
| 2026-04-22 15:47 | 35.49694 | -80.64792 | 4408 ft | 80 kts | 13° |
| 2026-04-22 15:47 | 35.50209 | -80.64452 | 4538 ft | 86 kts | 14° |
| 2026-04-22 15:47 | 35.50747 | -80.64095 | 4680 ft | 91 kts | 14° |
| 2026-04-22 15:48 | 35.51305 | -80.63720 | 4809 ft | 91 kts | 15° |
| 2026-04-22 15:48 | 35.51870 | -80.63350 | 4947 ft | 94 kts | 15° |
| 2026-04-22 15:48 | 35.52453 | -80.62959 | 5074 ft | 98 kts | 14° |
| 2026-04-22 15:48 | 35.53054 | -80.62555 | 5209 ft | 99 kts | 14° |
| 2026-04-22 15:49 | 35.53669 | -80.62150 | 5320 ft | 101 kts | 16° |
| 2026-04-22 15:49 | 35.54286 | -80.61737 | 5471 ft | 102 kts | 16° |
| 2026-04-22 15:49 | 35.54918 | -80.61316 | 5624 ft | 104 kts | 15° |
| 2026-04-22 15:49 | 35.55553 | -80.60892 | 5773 ft | 103 kts | 14° |
| 2026-04-22 15:50 | 35.56178 | -80.60475 | 5909 ft | 101 kts | 14° |
| 2026-04-22 15:50 | 35.56785 | -80.60070 | 6063 ft | 99 kts | 15° |
| 2026-04-22 15:50 | 35.57380 | -80.59672 | 6206 ft | 95 kts | 14° |
| 2026-04-22 15:50 | 35.57958 | -80.59287 | 6353 ft | 94 kts | 14° |
| 2026-04-22 15:51 | 35.58528 | -80.58907 | 6501 ft | 92 kts | 14° |
| 2026-04-22 15:51 | 35.59077 | -80.58539 | 6649 ft | 89 kts | 14° |
| 2026-04-22 15:51 | 35.59617 | -80.58181 | 6784 ft | 87 kts | 14° |
| 2026-04-22 15:51 | 35.60139 | -80.57837 | 6925 ft | 85 kts | 13° |
| 2026-04-22 15:52 | 35.60660 | -80.57488 | 7059 ft | 84 kts | 13° |
| 2026-04-22 15:52 | 35.61162 | -80.57154 | 7193 ft | 81 kts | 13° |
| 2026-04-22 15:52 | 35.61653 | -80.56826 | 7328 ft | 80 kts | 13° |
| 2026-04-22 15:52 | 35.62127 | -80.56513 | 7462 ft | 76 kts | 13° |
| 2026-04-22 15:53 | 35.62575 | -80.56215 | 7590 ft | 70 kts | 11° |
| 2026-04-22 15:53 | 35.63006 | -80.55929 | 7665 ft | 71 kts | 11° |
| 2026-04-22 15:53 | 35.63436 | -80.55643 | 7731 ft | 71 kts | 11° |
| 2026-04-22 15:53 | 35.63872 | -80.55352 | 7778 ft | 70 kts | 10° |
| 2026-04-22 15:54 | 35.64317 | -80.55052 | 7843 ft | 77 kts | 12° |
| 2026-04-22 15:54 | 35.64808 | -80.54726 | 7895 ft | 83 kts | 14° |
| 2026-04-22 15:54 | 35.65328 | -80.54378 | 7960 ft | 87 kts | 15° |
| 2026-04-22 15:54 | 35.65876 | -80.54012 | 8027 ft | 93 kts | 17° |
| 2026-04-22 15:55 | 35.66466 | -80.53618 | 8094 ft | 100 kts | 18° |
| 2026-04-22 15:55 | 35.67085 | -80.53202 | 8153 ft | 103 kts | 19° |
| 2026-04-22 15:55 | 35.67726 | -80.52774 | 8214 ft | 107 kts | 19° |
| 2026-04-22 15:55 | 35.68386 | -80.52330 | 8308 ft | 108 kts | 20° |
| 2026-04-22 15:56 | 35.69035 | -80.51896 | 8405 ft | 105 kts | 19° |
| 2026-04-22 15:56 | 35.69683 | -80.51461 | 8509 ft | 107 kts | 19° |
| 2026-04-22 15:56 | 35.70344 | -80.51019 | 8605 ft | 108 kts | 19° |
| 2026-04-22 15:56 | 35.71001 | -80.50579 | 8711 ft | 108 kts | 20° |
| 2026-04-22 15:57 | 35.71644 | -80.50149 | 8820 ft | 104 kts | 20° |
| 2026-04-22 15:57 | 35.72280 | -80.49725 | 8943 ft | 104 kts | 20° |
| 2026-04-22 15:57 | 35.72909 | -80.49303 | 9064 ft | 102 kts | 19° |
| 2026-04-22 15:57 | 35.73529 | -80.48888 | 9182 ft | 100 kts | 19° |
| 2026-04-22 15:58 | 35.74131 | -80.48485 | 9300 ft | 98 kts | 19° |
| 2026-04-22 15:58 | 35.74725 | -80.48089 | 9419 ft | 95 kts | 20° |
| 2026-04-22 15:58 | 35.75306 | -80.47698 | 9545 ft | 94 kts | 19° |
| 2026-04-22 15:58 | 35.75881 | -80.47316 | 9663 ft | 93 kts | 20° |
| 2026-04-22 15:59 | 35.76432 | -80.46947 | 9774 ft | 87 kts | 19° |
| 2026-04-22 15:59 | 35.76956 | -80.46601 | 9831 ft | 87 kts | 19° |
| 2026-04-22 15:59 | 35.77506 | -80.46230 | 9847 ft | 93 kts | 19° |
| 2026-04-22 15:59 | 35.78096 | -80.45833 | 9873 ft | 100 kts | 20° |
| 2026-04-22 16:00 | 35.78735 | -80.45404 | 9899 ft | 109 kts | 22° |
| 2026-04-22 16:00 | 35.79424 | -80.44944 | 9921 ft | 115 kts | 22° |
| 2026-04-22 16:00 | 35.80140 | -80.44461 | 9936 ft | 120 kts | 22° |
| 2026-04-22 16:00 | 35.80874 | -80.43968 | 9977 ft | 119 kts | 22° |
| 2026-04-22 16:01 | 35.81602 | -80.43478 | 10030 ft | 119 kts | 22° |
| 2026-04-22 16:01 | 35.82328 | -80.42990 | 10088 ft | 120 kts | 23° |
| 2026-04-22 16:01 | 35.83062 | -80.42499 | 10133 ft | 120 kts | 22° |
| 2026-04-22 16:01 | 35.83794 | -80.42007 | 10181 ft | 120 kts | 22° |
| 2026-04-22 16:02 | 35.84525 | -80.41516 | 10227 ft | 119 kts | 22° |
| 2026-04-22 16:02 | 35.85249 | -80.41020 | 10281 ft | 120 kts | 23° |
| 2026-04-22 16:02 | 35.85971 | -80.40512 | 10324 ft | 118 kts | 23° |
| 2026-04-22 16:02 | 35.86671 | -80.40010 | 10402 ft | 118 kts | 23° |
| 2026-04-22 16:03 | 35.87375 | -80.39495 | 10452 ft | 118 kts | 24° |
| 2026-04-22 16:03 | 35.88075 | -80.38964 | 10519 ft | 117 kts | 24° |
| 2026-04-22 16:03 | 35.88760 | -80.38430 | 10587 ft | 116 kts | 25° |
| 2026-04-22 16:03 | 35.89438 | -80.37888 | 10659 ft | 116 kts | 26° |
| 2026-04-22 16:04 | 35.90107 | -80.37341 | 10734 ft | 116 kts | 25° |
| 2026-04-22 16:04 | 35.90772 | -80.36784 | 10804 ft | 115 kts | 26° |
| 2026-04-22 16:04 | 35.91426 | -80.36218 | 10880 ft | 115 kts | 27° |
| 2026-04-22 16:04 | 35.92079 | -80.35643 | 10952 ft | 116 kts | 27° |
| 2026-04-22 16:05 | 35.92514 | -80.35257 | 10997 ft | 116 kts | 28° |
| 2026-04-22 16:05 | 35.93374 | -80.34469 | 11093 ft | 115 kts | 28° |
| 2026-04-22 16:05 | 35.94005 | -80.33875 | 11166 ft | 114 kts | 29° |
| 2026-04-22 16:05 | 35.94646 | -80.33262 | 11196 ft | 119 kts | 30° |
| 2026-04-22 16:06 | 35.95285 | -80.32625 | 11196 ft | 118 kts | 31° |
| 2026-04-22 16:06 | 35.95932 | -80.31974 | 11206 ft | 122 kts | 31° |
| 2026-04-22 16:06 | 35.96602 | -80.31289 | 11202 ft | 127 kts | 32° |
| 2026-04-22 16:06 | 35.97293 | -80.30573 | 11198 ft | 131 kts | 33° |
| 2026-04-22 16:07 | 35.97990 | -80.29835 | 11203 ft | 133 kts | 34° |
| 2026-04-22 16:07 | 35.98686 | -80.29082 | 11202 ft | 136 kts | 35° |
| 2026-04-22 16:07 | 35.99386 | -80.28302 | 11200 ft | 136 kts | 36° |
| 2026-04-22 16:07 | 36.00079 | -80.27511 | 11202 ft | 136 kts | 36° |
| 2026-04-22 16:08 | 36.00769 | -80.26705 | 11201 ft | 136 kts | 37° |
| 2026-04-22 16:08 | 36.01452 | -80.25885 | 11197 ft | 137 kts | 39° |
| 2026-04-22 16:08 | 36.02132 | -80.25048 | 11200 ft | 139 kts | 39° |
| 2026-04-22 16:08 | 36.02812 | -80.24196 | 11204 ft | 139 kts | 40° |
| 2026-04-22 16:09 | 36.03482 | -80.23329 | 11201 ft | 140 kts | 41° |
| 2026-04-22 16:09 | 36.04145 | -80.22453 | 11196 ft | 140 kts | 42° |
| 2026-04-22 16:09 | 36.04932 | -80.21918 | 11193 ft | 123 kts | 355° |
| 2026-04-22 16:09 | 36.05766 | -80.21584 | 11198 ft | 130 kts | 18° |
| 2026-04-22 16:10 | 36.06579 | -80.21086 | 11199 ft | 131 kts | 19° |
| 2026-04-22 16:10 | 36.07389 | -80.20568 | 11198 ft | 132 kts | 20° |
| 2026-04-22 16:10 | 36.07926 | -80.20218 | 11199 ft | 131 kts | 20° |
| 2026-04-22 16:10 | 36.09007 | -80.19510 | 11199 ft | 133 kts | 20° |
| 2026-04-22 16:11 | 36.09821 | -80.18974 | 11197 ft | 132 kts | 20° |
| 2026-04-22 16:11 | 36.10633 | -80.18441 | 11203 ft | 132 kts | 19° |
| 2026-04-22 16:11 | 36.11439 | -80.17908 | 11197 ft | 131 kts | 18° |
| 2026-04-22 16:11 | 36.12244 | -80.17379 | 11196 ft | 130 kts | 19° |
| 2026-04-22 16:12 | 36.13044 | -80.16852 | 11196 ft | 130 kts | 19° |
| 2026-04-22 16:12 | 36.13843 | -80.16327 | 11200 ft | 130 kts | 18° |
| 2026-04-22 16:12 | 36.14640 | -80.15803 | 11198 ft | 130 kts | 18° |
| 2026-04-22 16:12 | 36.15170 | -80.15452 | 11198 ft | 131 kts | 18° |
| 2026-04-22 16:13 | 36.16235 | -80.14751 | 11200 ft | 131 kts | 18° |
| 2026-04-22 16:13 | 36.17039 | -80.14219 | 11201 ft | 131 kts | 18° |
| 2026-04-22 16:13 | 36.17845 | -80.13687 | 11200 ft | 131 kts | 18° |
| 2026-04-22 16:13 | 36.18650 | -80.13156 | 11200 ft | 131 kts | 18° |
| 2026-04-22 16:14 | 36.19454 | -80.12626 | 11200 ft | 130 kts | 18° |
| 2026-04-22 16:14 | 36.19995 | -80.12268 | 11200 ft | 131 kts | 18° |
| 2026-04-22 16:14 | 36.20798 | -80.11739 | 11195 ft | 131 kts | 18° |
| 2026-04-22 16:14 | 36.21601 | -80.11210 | 11197 ft | 131 kts | 18° |
| 2026-04-22 16:15 | 36.22404 | -80.10680 | 11196 ft | 132 kts | 18° |
| 2026-04-22 16:15 | 36.23209 | -80.10147 | 11193 ft | 131 kts | 18° |
| 2026-04-22 16:15 | 36.24013 | -80.09617 | 11188 ft | 131 kts | 18° |
| 2026-04-22 16:15 | 36.24815 | -80.09087 | 11189 ft | 131 kts | 18° |
| 2026-04-22 16:16 | 36.25610 | -80.08561 | 11192 ft | 131 kts | 18° |
| 2026-04-22 16:16 | 36.26417 | -80.08028 | 11191 ft | 131 kts | 18° |
| 2026-04-22 16:16 | 36.27218 | -80.07497 | 11188 ft | 131 kts | 18° |
| 2026-04-22 16:16 | 36.28020 | -80.06967 | 11189 ft | 131 kts | 18° |
| 2026-04-22 16:17 | 36.28828 | -80.06433 | 11189 ft | 132 kts | 18° |
| 2026-04-22 16:17 | 36.29636 | -80.05898 | 11187 ft | 131 kts | 18° |
| 2026-04-22 16:17 | 36.30437 | -80.05368 | 11188 ft | 131 kts | 18° |
| 2026-04-22 16:17 | 36.31242 | -80.04835 | 11189 ft | 131 kts | 18° |
| 2026-04-22 16:18 | 36.32046 | -80.04302 | 11191 ft | 131 kts | 18° |
| 2026-04-22 16:18 | 36.32852 | -80.03769 | 11191 ft | 131 kts | 18° |
| 2026-04-22 16:18 | 36.33652 | -80.03237 | 11199 ft | 130 kts | 17° |
| 2026-04-22 16:18 | 36.34449 | -80.02711 | 11199 ft | 130 kts | 17° |
| 2026-04-22 16:19 | 36.35244 | -80.02183 | 11200 ft | 130 kts | 17° |
| 2026-04-22 16:19 | 36.36043 | -80.01654 | 11199 ft | 130 kts | 17° |
| 2026-04-22 16:19 | 36.36833 | -80.01131 | 11203 ft | 131 kts | 17° |
| 2026-04-22 16:19 | 36.37638 | -80.00596 | 11206 ft | 131 kts | 17° |
| 2026-04-22 16:20 | 36.38441 | -80.00063 | 11202 ft | 131 kts | 17° |
| 2026-04-22 16:20 | 36.39240 | -79.99532 | 11202 ft | 130 kts | 17° |
| 2026-04-22 16:20 | 36.40034 | -79.99005 | 11203 ft | 129 kts | 17° |
| 2026-04-22 16:20 | 36.40831 | -79.98477 | 11204 ft | 130 kts | 17° |
| 2026-04-22 16:21 | 36.41629 | -79.97947 | 11206 ft | 130 kts | 17° |
| 2026-04-22 16:21 | 36.42426 | -79.97417 | 11200 ft | 129 kts | 17° |
| 2026-04-22 16:21 | 36.43208 | -79.96895 | 11200 ft | 127 kts | 18° |
| 2026-04-22 16:21 | 36.43986 | -79.96382 | 11198 ft | 127 kts | 17° |
| 2026-04-22 16:22 | 36.45549 | -79.95341 | 11200 ft | 128 kts | 17° |
| 2026-04-22 16:22 | 36.46330 | -79.94822 | 11201 ft | 127 kts | 17° |
| 2026-04-22 16:22 | 36.47114 | -79.94301 | 11201 ft | 128 kts | 17° |
| 2026-04-22 16:23 | 36.48690 | -79.93252 | 11204 ft | 130 kts | 17° |
| 2026-04-22 16:23 | 36.49484 | -79.92724 | 11207 ft | 130 kts | 17° |
| 2026-04-22 16:23 | 36.50288 | -79.92187 | 11206 ft | 131 kts | 17° |
| 2026-04-22 16:24 | 36.51091 | -79.91653 | 11206 ft | 131 kts | 17° |
| 2026-04-22 16:24 | 36.52690 | -79.90587 | 11205 ft | 130 kts | 17° |
| 2026-04-22 16:24 | 36.53490 | -79.90054 | 11204 ft | 131 kts | 17° |
| 2026-04-22 16:25 | 36.54284 | -79.89525 | 11202 ft | 131 kts | 17° |
| 2026-04-22 16:25 | 36.55892 | -79.88453 | 11202 ft | 131 kts | 17° |
| 2026-04-22 16:25 | 36.56702 | -79.87912 | 11202 ft | 132 kts | 16° |
| 2026-04-22 16:26 | 36.57510 | -79.87372 | 11202 ft | 131 kts | 16° |
| 2026-04-22 16:26 | 36.58310 | -79.86838 | 11200 ft | 130 kts | 15° |
| 2026-04-22 16:26 | 36.59104 | -79.86308 | 11200 ft | 130 kts | 15° |
| 2026-04-22 16:26 | 36.59902 | -79.85777 | 11200 ft | 130 kts | 15° |
| 2026-04-22 16:27 | 36.60702 | -79.85242 | 11200 ft | 131 kts | 15° |
| 2026-04-22 16:27 | 36.61505 | -79.84706 | 11197 ft | 131 kts | 15° |
| 2026-04-22 16:27 | 36.62305 | -79.84170 | 11195 ft | 130 kts | 16° |
| 2026-04-22 16:27 | 36.63096 | -79.83641 | 11192 ft | 128 kts | 15° |
| 2026-04-22 16:28 | 36.63886 | -79.83113 | 11191 ft | 128 kts | 15° |
| 2026-04-22 16:28 | 36.64675 | -79.82587 | 11192 ft | 129 kts | 15° |
| 2026-04-22 16:28 | 36.65465 | -79.82058 | 11187 ft | 129 kts | 15° |
| 2026-04-22 16:28 | 36.66255 | -79.81530 | 11187 ft | 129 kts | 15° |
| 2026-04-22 16:29 | 36.67046 | -79.81003 | 11186 ft | 130 kts | 16° |
| 2026-04-22 16:29 | 36.67840 | -79.80469 | 11185 ft | 129 kts | 16° |
| 2026-04-22 16:29 | 36.68625 | -79.79945 | 11181 ft | 128 kts | 15° |
| 2026-04-22 16:29 | 36.69405 | -79.79419 | 11179 ft | 127 kts | 16° |
| 2026-04-22 16:30 | 36.69924 | -79.79073 | 11177 ft | 128 kts | 16° |
| 2026-04-22 16:30 | 36.70981 | -79.78366 | 11177 ft | 129 kts | 16° |
| 2026-04-22 16:30 | 36.71768 | -79.77840 | 11175 ft | 130 kts | 16° |
| 2026-04-22 16:30 | 36.72566 | -79.77305 | 11175 ft | 130 kts | 16° |
| 2026-04-22 16:31 | 36.73367 | -79.76767 | 11175 ft | 131 kts | 17° |
| 2026-04-22 16:31 | 36.74171 | -79.76227 | 11173 ft | 131 kts | 17° |
| 2026-04-22 16:31 | 36.74975 | -79.75690 | 11172 ft | 131 kts | 17° |
| 2026-04-22 16:31 | 36.75776 | -79.75150 | 11169 ft | 131 kts | 16° |
| 2026-04-22 16:32 | 36.76577 | -79.74614 | 11171 ft | 132 kts | 17° |
| 2026-04-22 16:32 | 36.77387 | -79.74071 | 11169 ft | 132 kts | 17° |
| 2026-04-22 16:32 | 36.78196 | -79.73527 | 11162 ft | 131 kts | 17° |
| 2026-04-22 16:32 | 36.78993 | -79.72993 | 11170 ft | 130 kts | 16° |
| 2026-04-22 16:33 | 36.79783 | -79.72459 | 11173 ft | 129 kts | 15° |
| 2026-04-22 16:33 | 36.80572 | -79.71931 | 11169 ft | 128 kts | 15° |
| 2026-04-22 16:33 | 36.81352 | -79.71401 | 11168 ft | 127 kts | 16° |
| 2026-04-22 16:33 | 36.82130 | -79.70886 | 11168 ft | 127 kts | 15° |
| 2026-04-22 16:34 | 36.82910 | -79.70361 | 11165 ft | 128 kts | 15° |
| 2026-04-22 16:34 | 36.83699 | -79.69831 | 11164 ft | 129 kts | 15° |